Terminal Aerodrome Forecast
Issued by NWS

Home | Current Version | Previous Version | Text Only | Print | Product List | Glossary On
Versions: 1 2 3 4 5 6 7 8 9 10 11 12 13 14 15 16 17 18 19 20 21 22 23 24
167
FTUS41 KBUF 082322
TAFJHW
TAF
KJHW 082322Z 0900/0924 27011KT 1SM -SN OVC008
     FM090200 27012KT 1/2SM SN OVC008
     FM090900 29010KT 1SM -SN OVC015
     FM091200 30010KT 2SM -SN OVC015
     FM091800 30011KT 1/2SM SN OVC012
      AMD LTD TO CLD VIS AND WIND=

USA.gov is the U.S. government's official web portal to all federal, state and local government web resources and services.